createdAt,value
2023-05-23T00:01:55.678Z,9.85
2023-05-23T00:04:23.228Z,9.73
2023-05-23T00:06:51.235Z,9.43
2023-05-23T00:09:18.434Z,9.75
2023-05-23T00:11:46.079Z,10.38
2023-05-23T00:14:17.086Z,9.88
2023-05-23T00:16:45.765Z,10.65
2023-05-23T00:19:15.361Z,9.23
2023-05-23T00:21:52.612Z,11.00
2023-05-23T00:24:20.599Z,9.35
2023-05-23T00:26:47.819Z,9.90
2023-05-23T00:29:18.583Z,9.70
2023-05-23T00:31:46.919Z,9.52
2023-05-23T00:34:18.238Z,8.85
2023-05-23T00:36:48.166Z,9.45
2023-05-23T00:39:20.158Z,9.40
2023-05-23T00:41:51.803Z,9.57
2023-05-23T00:44:20.445Z,9.63
2023-05-23T00:46:52.474Z,9.40
2023-05-23T00:49:22.487Z,9.23
2023-05-23T00:51:50.272Z,9.38
2023-05-23T00:54:37.066Z,10.13
2023-05-23T00:57:04.662Z,8.90
2023-05-23T00:59:32.494Z,9.70
2023-05-23T01:02:01.128Z,9.77
2023-05-23T01:04:28.667Z,9.32
2023-05-23T01:06:56.667Z,8.73
2023-05-23T01:09:25.978Z,9.38
2023-05-23T01:12:17.334Z,10.23
2023-05-23T01:15:18.083Z,9.40
2023-05-23T01:17:55.536Z,8.65
2023-05-23T01:20:26.665Z,8.65
2023-05-23T01:23:02.478Z,9.65
2023-05-23T01:25:29.552Z,9.20
2023-05-23T01:28:02.196Z,8.80
2023-05-23T01:30:32.956Z,9.65
2023-05-23T01:33:03.523Z,9.85
2023-05-23T01:35:31.862Z,8.63
2023-05-23T01:37:58.848Z,8.48
2023-05-23T01:40:26.834Z,8.10
2023-05-23T01:42:57.529Z,7.82
2023-05-23T01:45:27.778Z,8.43
2023-05-23T01:47:56.477Z,8.18
2023-05-23T01:50:24.768Z,9.10
2023-05-23T01:52:52.566Z,8.50
2023-05-23T01:55:24.546Z,8.63
2023-05-23T01:57:52.765Z,9.32
2023-05-23T02:00:19.984Z,8.82
2023-05-23T02:02:47.909Z,8.93
2023-05-23T02:05:17.379Z,8.80
2023-05-23T02:07:45.636Z,8.55
2023-05-23T02:10:12.614Z,8.70
2023-05-23T02:12:39.611Z,9.40
2023-05-23T02:15:07.890Z,8.75
2023-05-23T02:17:35.075Z,9.35
2023-05-23T02:20:02.240Z,8.73
2023-05-23T02:22:29.158Z,8.55
2023-05-23T02:24:56.174Z,8.90
2023-05-23T02:27:23.417Z,8.73
2023-05-23T02:29:50.576Z,8.15
2023-05-23T02:32:17.508Z,7.88
2023-05-23T02:34:46.858Z,7.93
2023-05-23T02:37:14.969Z,8.10
2023-05-23T02:39:43.325Z,7.55
2023-05-23T02:42:10.425Z,7.35
2023-05-23T02:44:37.586Z,7.18
2023-05-23T02:47:04.713Z,7.35
2023-05-23T02:49:33.780Z,7.90
2023-05-23T02:52:01.041Z,7.78
2023-05-23T02:54:28.060Z,7.97
2023-05-23T02:56:56.012Z,8.50
2023-05-23T02:59:23.327Z,8.68
2023-05-23T03:01:50.439Z,8.00
2023-05-23T03:04:18.541Z,8.25
2023-05-23T03:06:45.689Z,9.30
2023-05-23T03:09:12.751Z,9.43
2023-05-23T03:11:40.564Z,9.13
2023-05-23T03:14:07.606Z,9.23
2023-05-23T03:16:34.710Z,9.55
2023-05-23T03:19:02.444Z,9.52
2023-05-23T03:21:29.945Z,11.52
2023-05-23T03:23:57.079Z,10.13
2023-05-23T03:26:24.113Z,10.40
2023-05-23T03:28:51.470Z,9.57
2023-05-23T03:31:19.861Z,9.82
2023-05-23T03:33:46.929Z,9.35
2023-05-23T03:36:13.986Z,10.70
2023-05-23T03:38:42.373Z,10.00
2023-05-23T03:41:09.337Z,10.13
2023-05-23T03:43:36.456Z,9.60
2023-05-23T03:46:03.987Z,10.10
2023-05-23T03:48:31.228Z,8.82
2023-05-23T03:50:58.196Z,9.32
2023-05-23T03:53:25.535Z,10.27
2023-05-23T03:55:54.170Z,10.43
2023-05-23T03:58:21.696Z,11.00
2023-05-23T04:00:53.351Z,10.18
2023-05-23T04:03:21.662Z,9.68
2023-05-23T04:05:50.408Z,10.68
2023-05-23T04:08:17.946Z,10.25
2023-05-23T04:10:44.884Z,11.18
2023-05-23T04:13:11.946Z,11.40
2023-05-23T04:15:40.074Z,11.23
2023-05-23T04:18:10.423Z,11.52
2023-05-23T04:20:38.452Z,11.23
2023-05-23T04:23:05.679Z,10.45
2023-05-23T04:25:36.359Z,10.45
2023-05-23T04:28:14.258Z,10.10
2023-05-23T04:30:42.823Z,11.23
2023-05-23T04:33:10.515Z,11.13
2023-05-23T04:35:40.894Z,10.40
2023-05-23T04:38:08.669Z,10.85
2023-05-23T04:40:35.912Z,11.05
2023-05-23T04:43:26.751Z,10.25
2023-05-23T04:45:57.935Z,10.35
2023-05-23T04:48:36.423Z,10.07
2023-05-23T04:51:08.682Z,10.40
2023-05-23T04:53:41.696Z,10.05
2023-05-23T04:56:10.533Z,10.35
2023-05-23T04:58:40.838Z,9.88
2023-05-23T05:01:09.976Z,10.63
2023-05-23T05:03:37.185Z,9.00
2023-05-23T05:06:04.452Z,9.35
2023-05-23T05:08:31.607Z,8.80
2023-05-23T05:10:59.062Z,10.82
2023-05-23T05:13:26.178Z,9.88
2023-05-23T05:15:55.411Z,9.15
2023-05-23T05:18:23.889Z,9.77
2023-05-23T05:20:51.221Z,8.88
2023-05-23T05:23:18.813Z,10.68
2023-05-23T05:25:46.309Z,10.02
2023-05-23T05:28:13.548Z,10.75
2023-05-23T05:30:46.546Z,9.63
2023-05-23T05:33:14.550Z,9.23
2023-05-23T05:35:41.932Z,10.13
2023-05-23T05:38:11.101Z,10.63
2023-05-23T05:40:39.878Z,9.80
2023-05-23T05:43:07.068Z,9.57
2023-05-23T05:45:34.580Z,10.10
2023-05-23T05:48:01.668Z,11.38
2023-05-23T05:50:29.557Z,9.98
2023-05-23T05:52:56.656Z,9.93
2023-05-23T05:55:24.446Z,9.23
2023-05-23T05:57:54.562Z,10.30
2023-05-23T06:00:22.362Z,9.57
2023-05-23T06:02:59.735Z,9.05
2023-05-23T06:05:46.380Z,9.68
2023-05-23T06:08:13.498Z,9.05
2023-05-23T06:10:40.686Z,9.30
2023-05-23T06:13:08.315Z,9.07
2023-05-23T06:15:37.177Z,9.57
2023-05-23T06:18:04.395Z,9.60
2023-05-23T06:20:32.800Z,9.18
2023-05-23T06:23:05.716Z,9.32
2023-05-23T06:25:32.871Z,9.35
2023-05-23T06:28:00.968Z,9.23
2023-05-23T06:30:30.125Z,8.45
2023-05-23T06:32:57.688Z,8.98
2023-05-23T06:35:25.705Z,9.18
2023-05-23T06:37:53.513Z,8.40
2023-05-23T06:40:20.735Z,8.00
2023-05-23T06:42:48.017Z,9.15
2023-05-23T06:45:24.358Z,8.43
2023-05-23T06:47:51.846Z,9.40
2023-05-23T06:50:22.941Z,8.82
2023-05-23T06:52:51.198Z,8.75
2023-05-23T06:55:19.688Z,10.27
2023-05-23T06:57:52.248Z,10.30
2023-05-23T07:00:21.453Z,9.25
2023-05-23T07:03:03.729Z,10.63
2023-05-23T07:05:31.145Z,10.80
2023-05-23T07:07:58.180Z,9.93
2023-05-23T07:10:26.486Z,10.65
2023-05-23T07:12:58.628Z,11.55
2023-05-23T07:15:27.455Z,10.90
2023-05-23T07:18:03.421Z,10.90
2023-05-23T07:20:34.148Z,12.38
2023-05-23T07:23:10.091Z,10.55
2023-05-23T07:25:38.938Z,10.68
2023-05-23T07:28:11.548Z,11.10
2023-05-23T07:30:39.220Z,11.25
2023-05-23T07:33:06.567Z,11.68
2023-05-23T07:35:34.966Z,10.48
2023-05-23T07:38:02.657Z,10.90
2023-05-23T07:40:30.618Z,11.15
2023-05-23T07:42:57.749Z,11.60
2023-05-23T07:45:24.991Z,11.85
2023-05-23T07:47:52.150Z,11.90
2023-05-23T07:50:19.145Z,11.85
2023-05-23T07:52:46.872Z,11.55
2023-05-23T07:55:17.123Z,10.60
2023-05-23T07:57:44.213Z,10.55
2023-05-23T08:00:12.667Z,10.88
2023-05-23T08:02:42.697Z,10.88
2023-05-23T08:07:48.331Z,11.10
2023-05-23T08:10:15.608Z,10.68
2023-05-23T08:12:43.736Z,10.07
2023-05-23T08:15:15.134Z,10.45
2023-05-23T08:17:46.514Z,11.25
2023-05-23T08:20:13.715Z,11.77
2023-05-23T08:22:41.212Z,11.30
2023-05-23T08:25:09.695Z,10.73
2023-05-23T08:27:39.594Z,11.27
2023-05-23T08:30:23.309Z,10.73
2023-05-23T08:32:50.658Z,13.90
2023-05-23T08:35:17.679Z,12.23
2023-05-23T08:37:46.767Z,11.82
2023-05-23T08:40:22.583Z,13.07
2023-05-23T08:42:58.623Z,13.27
2023-05-23T08:45:25.941Z,12.57
2023-05-23T08:47:55.994Z,11.50
2023-05-23T08:50:28.604Z,11.50
2023-05-23T08:52:59.560Z,11.43
2023-05-23T08:55:29.459Z,10.73
2023-05-23T08:58:03.759Z,10.27
2023-05-23T09:00:53.960Z,9.77
2023-05-23T09:03:23.363Z,9.85
2023-05-23T09:06:10.999Z,9.57
2023-05-23T09:08:39.044Z,9.27
2023-05-23T09:11:06.663Z,9.77
2023-05-23T09:13:37.867Z,9.80
2023-05-23T09:16:10.658Z,8.50
2023-05-23T09:18:45.817Z,7.22
2023-05-23T09:21:15.640Z,8.23
2023-05-23T09:23:55.764Z,8.00
2023-05-23T09:26:22.990Z,6.82
2023-05-23T09:28:49.993Z,5.85
2023-05-23T09:31:17.740Z,5.50
2023-05-23T09:33:48.817Z,6.30
2023-05-23T09:36:18.151Z,6.22
2023-05-23T09:38:46.831Z,5.55
2023-05-23T09:41:14.213Z,5.45
2023-05-23T09:43:51.973Z,5.07
2023-05-23T09:46:21.842Z,5.50
2023-05-23T09:48:52.289Z,6.15
2023-05-23T09:51:21.670Z,6.03
2023-05-23T09:53:49.655Z,6.28
2023-05-23T09:56:17.757Z,5.53
2023-05-23T09:58:50.283Z,5.38
2023-05-23T10:01:17.761Z,6.22
2023-05-23T10:03:57.252Z,6.03
2023-05-23T10:06:29.203Z,6.30
2023-05-23T10:09:10.105Z,6.18
2023-05-23T10:11:37.003Z,5.72
2023-05-23T10:14:07.743Z,5.70
2023-05-23T10:17:04.113Z,5.60
2023-05-23T10:19:43.740Z,5.60
2023-05-23T10:22:12.587Z,5.43
2023-05-23T10:24:40.380Z,5.25
2023-05-23T10:27:07.871Z,5.05
2023-05-23T10:29:36.708Z,5.50
2023-05-23T10:32:06.083Z,5.47
2023-05-23T10:35:02.374Z,5.60
2023-05-23T10:38:07.984Z,5.22
2023-05-23T10:43:29.674Z,5.32
2023-05-23T10:45:57.336Z,4.88
2023-05-23T10:48:42.488Z,4.57
2023-05-23T10:51:14.515Z,6.03
2023-05-23T10:53:44.041Z,5.38
2023-05-23T10:56:19.687Z,5.78
2023-05-23T10:58:46.782Z,4.45
2023-05-23T11:01:16.597Z,4.78
2023-05-23T11:03:46.737Z,5.25
2023-05-23T11:06:30.200Z,4.95
2023-05-23T11:09:10.315Z,5.40
2023-05-23T11:12:06.072Z,5.10
2023-05-23T11:14:38.008Z,6.75
2023-05-23T11:17:14.102Z,4.60
2023-05-23T11:19:57.014Z,5.32
2023-05-23T11:22:29.123Z,4.90
2023-05-23T11:24:57.777Z,5.35
2023-05-23T11:27:27.424Z,5.40
2023-05-23T11:29:59.385Z,4.40
2023-05-23T11:32:30.022Z,5.20
2023-05-23T11:35:09.460Z,4.43
2023-05-23T11:37:39.096Z,5.82
2023-05-23T11:40:26.378Z,4.85
2023-05-23T11:42:54.770Z,4.45
2023-05-23T11:45:23.216Z,4.75
2023-05-23T11:47:50.701Z,4.95
2023-05-23T11:50:17.950Z,4.80
2023-05-23T11:52:52.206Z,5.00
2023-05-23T11:55:21.586Z,5.50
2023-05-23T11:57:49.611Z,4.75
2023-05-23T12:00:16.980Z,4.70
2023-05-23T12:02:45.752Z,4.55
2023-05-23T12:05:14.647Z,5.47
2023-05-23T12:07:43.035Z,5.25
2023-05-23T12:10:11.884Z,5.07
2023-05-23T12:12:41.479Z,4.90
2023-05-23T12:15:10.034Z,5.75
2023-05-23T12:17:38.565Z,5.32
2023-05-23T12:20:09.406Z,5.22
2023-05-23T12:22:36.489Z,5.40
2023-05-23T12:25:05.090Z,5.88
2023-05-23T12:27:36.027Z,4.78
2023-05-23T12:30:10.692Z,5.78
2023-05-23T12:32:40.722Z,5.18
2023-05-23T12:35:13.472Z,5.05
2023-05-23T12:37:43.135Z,5.55
2023-05-23T12:40:18.226Z,4.75
2023-05-23T12:42:53.177Z,5.63
2023-05-23T12:45:24.999Z,5.25
2023-05-23T12:47:54.186Z,6.30
2023-05-23T12:50:22.542Z,4.68
2023-05-23T12:52:49.524Z,5.82
2023-05-23T12:55:16.453Z,5.43
2023-05-23T12:57:43.535Z,5.78
2023-05-23T13:00:11.843Z,9.60
2023-05-23T13:02:40.017Z,5.93
2023-05-23T13:05:07.634Z,5.38
2023-05-23T13:07:34.642Z,5.57
2023-05-23T13:10:02.709Z,6.78
2023-05-23T13:12:29.861Z,6.43
2023-05-23T13:14:58.074Z,6.00
2023-05-23T13:17:25.100Z,5.38
2023-05-23T13:19:52.215Z,6.43
2023-05-23T13:22:19.175Z,6.90
2023-05-23T13:24:46.316Z,5.60
2023-05-23T13:27:13.433Z,6.43
2023-05-23T13:29:40.423Z,5.80
2023-05-23T13:32:07.717Z,5.68
2023-05-23T13:34:37.658Z,6.15
2023-05-23T13:37:05.916Z,5.55
2023-05-23T13:39:33.158Z,5.93
2023-05-23T13:42:00.309Z,5.82
2023-05-23T13:44:28.687Z,6.68
2023-05-23T13:46:55.902Z,6.05
2023-05-23T13:49:23.001Z,5.95
2023-05-23T13:51:50.296Z,5.95
2023-05-23T13:54:17.500Z,6.90
2023-05-23T13:56:44.796Z,6.35
2023-05-23T13:59:19.230Z,5.70
2023-05-23T14:01:46.781Z,5.95
2023-05-23T14:04:14.106Z,6.28
2023-05-23T14:06:41.090Z,6.10
2023-05-23T14:09:08.184Z,6.05
2023-05-23T14:11:35.694Z,5.93
2023-05-23T14:14:02.721Z,6.13
2023-05-23T14:16:29.815Z,6.25
2023-05-23T14:18:56.990Z,6.13
2023-05-23T14:21:24.278Z,6.10
2023-05-23T14:23:51.451Z,6.20
2023-05-23T14:26:18.412Z,5.47
2023-05-23T14:28:45.465Z,6.47
2023-05-23T14:31:12.466Z,6.03
2023-05-23T14:33:39.628Z,5.78
2023-05-23T14:36:06.866Z,6.97
2023-05-23T14:38:33.822Z,7.57
2023-05-23T14:41:00.953Z,6.63
2023-05-23T14:43:27.993Z,5.93
2023-05-23T14:45:54.960Z,6.53
2023-05-23T14:48:22.396Z,6.05
2023-05-23T14:50:49.364Z,6.90
2023-05-23T14:53:16.727Z,6.80
2023-05-23T14:55:43.867Z,5.82
2023-05-23T14:58:10.888Z,5.90
2023-05-23T15:00:37.971Z,6.63
2023-05-23T15:03:05.273Z,6.28
2023-05-23T15:05:32.283Z,6.75
2023-05-23T15:07:59.308Z,6.43
2023-05-23T15:10:26.300Z,6.60
2023-05-23T15:12:53.203Z,5.70
2023-05-23T15:15:23.336Z,6.32
2023-05-23T15:17:51.381Z,5.28
2023-05-23T15:20:18.363Z,5.82
2023-05-23T15:22:45.897Z,5.75
2023-05-23T15:25:12.836Z,6.25
2023-05-23T15:27:39.958Z,5.55
2023-05-23T15:30:07.717Z,5.82
2023-05-23T15:32:34.744Z,5.97
2023-05-23T15:35:01.949Z,6.72
2023-05-23T15:37:28.960Z,6.13
2023-05-23T15:39:56.097Z,6.20
2023-05-23T15:42:23.102Z,6.30
2023-05-23T15:44:51.384Z,6.82
2023-05-23T15:47:18.919Z,6.75
2023-05-23T15:49:46.512Z,7.07
2023-05-23T15:52:14.152Z,5.53
2023-05-23T15:54:41.385Z,5.70
2023-05-23T15:57:11.592Z,6.43
2023-05-23T15:59:39.437Z,6.07
2023-05-23T16:02:07.869Z,5.72
2023-05-23T16:04:36.303Z,6.60
2023-05-23T16:07:04.569Z,6.10
2023-05-23T16:09:32.312Z,6.72
2023-05-23T16:11:59.408Z,6.45
2023-05-23T16:14:26.467Z,6.63
2023-05-23T16:16:53.680Z,5.95
2023-05-23T16:19:20.774Z,5.70
2023-05-23T16:21:47.927Z,6.15
2023-05-23T16:24:17.106Z,6.07
2023-05-23T16:26:44.182Z,5.55
2023-05-23T16:29:12.472Z,6.82
2023-05-23T16:31:39.585Z,6.82
2023-05-23T16:34:06.565Z,6.38
2023-05-23T16:36:33.561Z,6.63
2023-05-23T16:39:00.508Z,6.82
2023-05-23T16:41:28.249Z,7.75
2023-05-23T16:43:55.792Z,7.63
2023-05-23T16:46:22.760Z,7.30
2023-05-23T16:48:49.957Z,8.20
2023-05-23T16:51:16.878Z,7.63
2023-05-23T16:53:43.946Z,7.82
2023-05-23T16:56:10.929Z,7.05
2023-05-23T16:58:38.975Z,6.97
2023-05-23T17:01:07.192Z,8.38
2023-05-23T17:03:34.862Z,7.60
2023-05-23T17:06:01.960Z,8.07
2023-05-23T17:08:29.708Z,8.35
2023-05-23T17:10:57.672Z,8.15
2023-05-23T17:13:24.730Z,8.23
2023-05-23T17:15:51.859Z,8.85
2023-05-23T17:18:19.052Z,8.05
2023-05-23T17:20:46.179Z,7.97
2023-05-23T17:23:13.224Z,8.40
2023-05-23T17:25:40.681Z,8.25
2023-05-23T17:28:08.092Z,8.18
2023-05-23T17:30:35.078Z,9.23
2023-05-23T17:33:02.172Z,8.75
2023-05-23T17:35:29.714Z,8.68
2023-05-23T17:38:00.835Z,9.18
2023-05-23T17:40:28.101Z,9.10
2023-05-23T17:42:55.113Z,9.90
2023-05-23T17:45:22.265Z,9.80
2023-05-23T17:47:49.253Z,9.00
2023-05-23T17:50:16.431Z,8.63
2023-05-23T17:52:44.879Z,8.65
2023-05-23T17:55:12.044Z,8.43
2023-05-23T17:57:38.967Z,7.43
2023-05-23T18:00:07.369Z,8.68
2023-05-23T18:02:40.129Z,7.90
2023-05-23T18:05:09.503Z,8.32
2023-05-23T18:07:38.175Z,9.30
2023-05-23T18:10:06.757Z,8.70
2023-05-23T18:12:34.212Z,9.60
2023-05-23T18:15:01.398Z,10.15
2023-05-23T18:17:29.037Z,9.65
2023-05-23T18:19:56.084Z,9.75
2023-05-23T18:22:23.485Z,10.48
2023-05-23T18:24:50.824Z,9.73
2023-05-23T18:27:17.799Z,10.50
2023-05-23T18:29:45.066Z,10.48
2023-05-23T18:32:14.293Z,9.93
2023-05-23T18:34:41.647Z,10.70
2023-05-23T18:37:08.773Z,10.30
2023-05-23T18:39:35.738Z,10.18
2023-05-23T18:42:03.089Z,10.18
2023-05-23T18:44:30.196Z,11.27
2023-05-23T18:47:06.679Z,10.48
2023-05-23T18:49:33.893Z,11.05
2023-05-23T18:52:00.830Z,10.93
2023-05-23T18:54:28.022Z,10.73
2023-05-23T18:56:55.019Z,11.57
2023-05-23T18:59:22.085Z,10.85
2023-05-23T19:01:49.057Z,11.25
2023-05-23T19:04:16.028Z,12.82
2023-05-23T19:06:43.003Z,11.38
2023-05-23T19:09:11.717Z,10.70
2023-05-23T19:11:38.920Z,10.63
2023-05-23T19:14:06.032Z,11.27
2023-05-23T19:16:33.543Z,10.80
2023-05-23T19:19:00.645Z,10.75
2023-05-23T19:21:28.585Z,9.73
2023-05-23T19:23:56.633Z,9.68
2023-05-23T19:26:23.713Z,10.30
2023-05-23T19:28:51.019Z,11.18
2023-05-23T19:31:18.635Z,10.98
2023-05-23T19:33:46.521Z,9.15
2023-05-23T19:36:13.561Z,9.23
2023-05-23T19:38:40.562Z,10.88
2023-05-23T19:41:07.568Z,10.07
2023-05-23T19:43:34.513Z,10.30
2023-05-23T19:46:01.800Z,10.32
2023-05-23T19:48:28.731Z,10.90
2023-05-23T19:50:55.774Z,10.85
2023-05-23T19:53:23.165Z,9.65
2023-05-23T19:55:50.937Z,10.13
2023-05-23T19:58:18.643Z,10.45
2023-05-23T20:00:45.597Z,13.98
2023-05-23T20:03:12.589Z,13.52
2023-05-23T20:05:40.211Z,12.75
2023-05-23T20:08:08.188Z,13.90
2023-05-23T20:10:35.179Z,10.88
2023-05-23T20:13:02.129Z,11.70
2023-05-23T20:15:39.549Z,11.75
2023-05-23T20:18:07.968Z,13.52
2023-05-23T20:20:35.263Z,15.95
2023-05-23T20:23:02.248Z,15.07
2023-05-23T20:25:29.269Z,13.45
2023-05-23T20:27:59.233Z,13.10
2023-05-23T20:30:26.956Z,11.23
2023-05-23T20:32:54.632Z,13.68
2023-05-23T20:35:22.685Z,13.63
2023-05-23T20:37:51.867Z,13.98
2023-05-23T20:40:19.009Z,14.07
2023-05-23T20:42:46.143Z,13.57
2023-05-23T20:45:13.194Z,13.85
2023-05-23T20:47:41.929Z,14.18
2023-05-23T20:50:10.658Z,14.15
2023-05-23T20:52:39.567Z,14.63
2023-05-23T20:55:07.436Z,14.95
2023-05-23T20:57:36.620Z,15.23
2023-05-23T21:00:14.025Z,14.05
2023-05-23T21:02:42.211Z,14.40
2023-05-23T21:05:10.993Z,13.38
2023-05-23T21:07:38.275Z,14.25
2023-05-23T21:10:05.692Z,13.57
2023-05-23T21:12:32.968Z,14.27
2023-05-23T21:15:00.169Z,14.38
2023-05-23T21:17:27.244Z,15.00
2023-05-23T21:19:54.335Z,14.93
2023-05-23T21:22:21.369Z,13.50
2023-05-23T21:24:48.784Z,13.65
2023-05-23T21:27:15.716Z,13.27
2023-05-23T21:29:43.105Z,13.07
2023-05-23T21:32:10.055Z,13.55
2023-05-23T21:34:37.006Z,13.65
2023-05-23T21:37:04.158Z,13.75
2023-05-23T21:39:46.970Z,14.18
2023-05-23T21:42:18.612Z,13.23
2023-05-23T21:44:45.736Z,13.27
2023-05-23T21:47:12.760Z,14.40
2023-05-23T21:49:40.527Z,14.48
2023-05-23T21:52:07.815Z,13.63
2023-05-23T21:54:35.045Z,13.88
2023-05-23T21:57:02.065Z,14.07
2023-05-23T21:59:33.057Z,14.27
2023-05-23T22:02:00.360Z,14.63
2023-05-23T22:04:27.746Z,14.15
2023-05-23T22:06:54.817Z,13.73
2023-05-23T22:09:24.219Z,13.90
2023-05-23T22:11:51.480Z,13.65
2023-05-23T22:14:18.658Z,15.15
2023-05-23T22:16:46.303Z,14.10
2023-05-23T22:19:18.086Z,12.85
2023-05-23T22:21:45.804Z,13.48
2023-05-23T22:24:13.546Z,11.90
2023-05-23T22:26:40.540Z,11.30
2023-05-23T22:29:08.061Z,11.13
2023-05-23T22:31:37.586Z,9.70
2023-05-23T22:34:04.613Z,9.52
2023-05-23T22:36:33.568Z,9.95
2023-05-23T22:39:02.414Z,10.60
2023-05-23T22:41:29.451Z,10.30
2023-05-23T22:43:56.510Z,10.25
2023-05-23T22:46:23.823Z,10.43
2023-05-23T22:48:52.650Z,10.95
2023-05-23T22:51:19.983Z,10.85
2023-05-23T22:53:47.188Z,9.50
2023-05-23T22:56:15.594Z,10.35
2023-05-23T22:58:42.646Z,11.50
2023-05-23T23:01:09.762Z,10.82
2023-05-23T23:03:36.834Z,11.45
2023-05-23T23:06:06.484Z,11.77
2023-05-23T23:08:33.635Z,12.35
2023-05-23T23:11:00.890Z,12.13
2023-05-23T23:13:27.844Z,11.40
2023-05-23T23:15:55.590Z,11.13
2023-05-23T23:18:22.562Z,11.73
2023-05-23T23:20:49.627Z,12.18
2023-05-23T23:23:16.653Z,11.10
2023-05-23T23:25:45.158Z,11.65
2023-05-23T23:28:12.462Z,10.90
2023-05-23T23:30:39.396Z,11.48
2023-05-23T23:33:06.429Z,11.35
2023-05-23T23:35:33.385Z,12.20
2023-05-23T23:38:00.590Z,11.85
2023-05-23T23:40:27.560Z,11.73
2023-05-23T23:42:54.507Z,12.27
2023-05-23T23:45:21.717Z,14.00
2023-05-23T23:47:48.717Z,12.18
2023-05-23T23:50:15.925Z,11.82
2023-05-23T23:52:43.024Z,12.68
2023-05-23T23:55:10.447Z,12.45
2023-05-23T23:57:37.368Z,11.75
